Time;durP1;ratioP1;P1;durP2;ratioP2;P2;SDS_P1;SDS_P2;PMS_P1;PMS_P2;Temp;Humidity;BMP_temperature;BMP_pressure;BME280_temperature;BME280_humidity;BME280_pressure;Samples;Min_cycle;Max_cycle;Signal;HPM_P1;HPM_P2
2022/03/24 00:00:10;;;;;;;25.27;19.67;;;;;;;7.33;57.71;102810.75;5091805;28;20499;-88
2022/03/24 00:02:36;;;;;;;25.55;19.63;;;;;;;7.31;57.38;102810.03;5109930;28;20038;-88
2022/03/24 00:05:02;;;;;;;25.40;19.08;;;;;;;7.29;56.63;102812.06;5092310;28;20031;-88
2022/03/24 00:07:28;;;;;;;27.15;19.85;;;;;;;7.27;57.61;102805.09;5105616;28;20051;-88
2022/03/24 00:09:54;;;;;;;25.70;20.45;;;;;;;7.24;58.47;102808.91;5095403;28;20051;-88
2022/03/24 00:12:22;;;;;;;26.85;20.30;;;;;;;7.22;57.88;102808.22;5095069;28;20028;-88
2022/03/24 00:14:52;;;;;;;28.77;21.73;;;;;;;7.18;57.65;102812.22;5078303;28;20032;-88
2022/03/24 00:17:18;;;;;;;27.63;21.42;;;;;;;7.16;57.05;102812.34;5096785;28;20089;-88
2022/03/24 00:19:47;;;;;;;27.50;20.95;;;;;;;7.14;57.08;102810.78;5078133;28;20035;-88
2022/03/24 00:22:15;;;;;;;27.65;21.55;;;;;;;7.09;57.18;102805.81;5095068;28;20523;-88
2022/03/24 00:24:42;;;;;;;30.70;23.17;;;;;;;7.06;57.06;102803.41;5061920;28;20073;-88
2022/03/24 00:27:07;;;;;;;31.02;23.23;;;;;;;7.00;57.69;102807.53;5078255;28;20118;-88
2022/03/24 00:29:33;;;;;;;29.85;23.20;;;;;;;6.96;57.62;102803.41;5095086;28;20116;-88
2022/03/24 00:32:01;;;;;;;30.73;23.05;;;;;;;6.92;58.09;102803.84;5095497;28;20110;-88
2022/03/24 00:34:26;;;;;;;32.05;25.13;;;;;;;6.86;58.00;102799.88;5077898;28;20111;-88
2022/03/24 00:36:54;;;;;;;32.45;23.58;;;;;;;6.79;56.66;102796.03;5094861;28;20111;-88
2022/03/24 00:39:19;;;;;;;35.28;24.23;;;;;;;6.73;58.03;102808.28;5095862;28;20027;-88
2022/03/24 00:41:45;;;;;;;32.35;23.95;;;;;;;6.68;57.48;102805.97;5094661;28;20024;-88
2022/03/24 00:44:11;;;;;;;30.13;22.42;;;;;;;6.62;59.99;102794.91;5094562;28;20055;-88
2022/03/24 00:46:37;;;;;;;30.60;22.83;;;;;;;6.60;60.44;102802.28;5111670;28;20028;-88
2022/03/24 00:49:07;;;;;;;31.60;23.27;;;;;;;6.55;59.03;102793.78;5095766;28;20028;-88
2022/03/24 00:51:36;;;;;;;29.52;22.67;;;;;;;6.51;57.73;102793.22;5078166;28;20050;-88
2022/03/24 00:54:01;;;;;;;28.98;20.95;;;;;;;6.45;57.77;102786.53;5094561;28;20028;-88
2022/03/24 00:56:27;;;;;;;30.10;21.63;;;;;;;6.42;59.20;102794.91;5094129;28;20077;-87
2022/03/24 00:58:53;;;;;;;30.88;22.85;;;;;;;6.42;59.20;102792.22;5077320;28;20460;-88
2022/03/24 01:01:29;;;;;;;31.67;22.70;;;;;;;6.40;56.77;102799.56;5093462;28;20032;-88
2022/03/24 01:03:57;;;;;;;31.55;23.90;;;;;;;6.34;57.74;102786.66;5078317;28;20033;-88
2022/03/24 01:06:26;;;;;;;33.80;25.05;;;;;;;6.30;57.17;102783.41;5077335;28;20392;-88
2022/03/24 01:08:53;;;;;;;34.00;25.58;;;;;;;6.24;58.61;102775.84;5094248;28;20417;-88
2022/03/24 01:11:18;;;;;;;32.90;24.50;;;;;;;6.15;58.50;102777.53;5094306;28;20015;-88
2022/03/24 01:13:51;;;;;;;32.15;24.13;;;;;;;6.09;60.62;102796.13;5093822;28;20096;-88
2022/03/24 01:16:17;;;;;;;31.17;24.10;;;;;;;6.05;59.10;102786.59;5094317;28;20073;-87
2022/03/24 01:18:42;;;;;;;29.95;22.60;;;;;;;6.04;58.87;102784.88;5093854;28;20028;-87
2022/03/24 01:21:12;;;;;;;31.27;22.80;;;;;;;6.03;57.70;102777.81;5093329;28;20111;-88
2022/03/24 01:23:40;;;;;;;27.08;20.60;;;;;;;6.02;59.26;102773.41;5077955;28;20030;-88
2022/03/24 01:26:07;;;;;;;29.33;21.65;;;;;;;6.00;58.73;102778.09;5060431;28;20054;-88
2022/03/24 01:28:34;;;;;;;28.90;21.98;;;;;;;5.98;59.41;102775.53;5093956;28;20111;-88
2022/03/24 01:30:59;;;;;;;27.02;20.58;;;;;;;5.95;61.99;102782.00;5093909;28;20028;-88
2022/03/24 01:33:25;;;;;;;27.42;20.42;;;;;;;5.91;62.78;102772.50;5092975;28;20078;-88
2022/03/24 01:35:53;;;;;;;27.38;19.63;;;;;;;5.89;61.39;102777.16;5093478;28;20024;-88
2022/03/24 01:38:21;;;;;;;29.02;20.13;;;;;;;5.86;60.76;102766.69;5093476;28;20527;-88
2022/03/24 01:40:47;;;;;;;25.83;19.15;;;;;;;5.85;62.05;102764.13;5094968;28;20035;-87
2022/03/24 01:43:17;;;;;;;28.67;21.85;;;;;;;5.84;60.27;102768.63;5094845;28;20024;-87
2022/03/24 01:45:48;;;;;;;28.85;21.73;;;;;;;5.84;59.31;102757.84;5093467;28;20024;-88
2022/03/24 01:48:16;;;;;;;29.13;22.25;;;;;;;5.84;59.86;102757.00;5093405;28;20027;-88
2022/03/24 01:50:44;;;;;;;28.88;21.65;;;;;;;5.82;61.87;102751.75;5076422;28;20024;-88
2022/03/24 01:53:12;;;;;;;28.75;20.92;;;;;;;5.81;62.74;102752.75;5093480;28;20471;-88
2022/03/24 01:55:56;;;;;;;29.90;22.40;;;;;;;5.83;59.48;102753.47;5094393;28;20028;-88
2022/03/24 01:58:25;;;;;;;28.27;21.52;;;;;;;5.75;60.74;102746.06;5092983;28;20052;-88
2022/03/24 02:00:51;;;;;;;28.48;21.30;;;;;;;5.66;60.80;102748.75;5093104;28;20069;-88
2022/03/24 02:03:19;;;;;;;29.10;21.63;;;;;;;5.53;60.89;102748.97;5093856;28;20012;-88
2022/03/24 02:05:45;;;;;;;27.27;20.77;;;;;;;5.48;62.68;102753.88;5092976;28;20464;-88
2022/03/24 02:08:10;;;;;;;27.85;20.33;;;;;;;5.47;61.44;102754.91;5076146;28;20024;-88
2022/03/24 02:10:38;;;;;;;25.88;20.25;;;;;;;5.43;60.82;102747.09;5092865;28;20127;-88
2022/03/24 02:13:08;;;;;;;27.55;20.20;;;;;;;5.43;60.38;102748.91;5093080;28;20077;-88
2022/03/24 02:15:37;;;;;;;27.58;20.10;;;;;;;5.42;62.33;102748.06;5076346;28;20028;-88
2022/03/24 02:18:10;;;;;;;27.83;20.13;;;;;;;5.46;61.35;102751.34;5094165;28;20103;-88
2022/03/24 02:20:39;;;;;;;26.38;19.05;;;;;;;5.43;63.67;102740.84;5094403;28;20036;-88
2022/03/24 02:23:15;;;;;;;24.85;18.17;;;;;;;5.38;61.04;102748.47;5073628;28;20036;-88
2022/03/24 02:25:44;;;;;;;25.00;17.80;;;;;;;5.36;61.91;102742.34;5093263;28;20092;-88
2022/03/24 02:28:10;;;;;;;26.05;19.00;;;;;;;5.33;61.17;102742.63;5092676;28;20059;-88
2022/03/24 02:30:38;;;;;;;25.88;18.52;;;;;;;5.24;61.06;102742.47;5092697;28;20471;-88
2022/03/24 02:33:16;;;;;;;29.13;21.50;;;;;;;5.20;63.47;102746.41;5092195;28;20032;-88
2022/03/24 02:35:44;;;;;;;25.33;18.77;;;;;;;5.13;64.52;102747.91;5109880;28;20085;-88
2022/03/24 02:38:10;;;;;;;24.45;19.25;;;;;;;5.05;63.93;102748.59;5076190;28;20028;-88
2022/03/24 02:40:38;;;;;;;25.25;18.35;;;;;;;5.03;63.78;102747.00;5092533;28;20527;-88
2022/03/24 02:43:03;;;;;;;25.65;18.63;;;;;;;5.00;62.69;102753.50;5092507;28;20073;-88
2022/03/24 02:45:29;;;;;;;27.27;20.10;;;;;;;5.00;62.38;102748.13;5092502;28;20016;-88
2022/03/24 02:47:55;;;;;;;27.42;20.00;;;;;;;5.02;62.66;102747.97;5092460;28;20023;-87
2022/03/24 02:50:22;;;;;;;27.55;20.10;;;;;;;5.02;65.00;102747.97;5075516;28;20028;-88
2022/03/24 02:52:50;;;;;;;24.73;18.92;;;;;;;4.97;65.68;102742.16;5093801;28;20059;-87
2022/03/24 02:55:16;;;;;;;27.17;19.52;;;;;;;4.92;63.71;102751.47;5092350;28;20024;-88
2022/03/24 02:57:43;;;;;;;27.40;19.73;;;;;;;4.90;64.45;102747.19;5093321;28;20051;-87
2022/03/24 03:00:12;;;;;;;27.75;21.17;;;;;;;4.89;63.23;102742.81;5093522;28;20020;-88
2022/03/24 03:02:47;;;;;;;27.25;20.08;;;;;;;4.87;64.34;102748.34;5092977;28;20064;-88
2022/03/24 03:05:12;;;;;;;27.60;20.83;;;;;;;4.82;64.43;102742.47;5092276;28;20020;-88
2022/03/24 03:07:37;;;;;;;26.45;20.60;;;;;;;4.83;63.59;102751.41;5075617;28;20337;-88
2022/03/24 03:10:03;;;;;;;25.67;19.95;;;;;;;4.81;64.45;102751.53;5092227;28;20024;-88
2022/03/24 03:12:29;;;;;;;25.80;19.75;;;;;;;4.78;65.15;102743.72;5092593;28;20028;-88
2022/03/24 03:14:56;;;;;;;24.98;19.13;;;;;;;4.70;64.86;102747.06;5075584;28;20030;-88
2022/03/24 03:17:21;;;;;;;27.52;19.75;;;;;;;4.67;62.61;102746.47;5092110;28;20023;-88
2022/03/24 03:19:47;;;;;;;27.58;20.52;;;;;;;4.67;63.60;102743.78;5075555;28;20047;-88
2022/03/24 03:22:21;;;;;;;29.10;21.85;;;;;;;4.66;63.31;102751.00;5092140;28;20027;-88
2022/03/24 03:24:46;;;;;;;27.17;19.90;;;;;;;4.61;64.95;102738.94;5092355;28;20030;-87
2022/03/24 03:27:13;;;;;;;25.70;18.85;;;;;;;4.55;65.11;102745.69;5092485;28;20105;-88
2022/03/24 03:29:38;;;;;;;26.50;19.02;;;;;;;4.54;63.73;102747.50;5091982;28;20039;-88
2022/03/24 03:32:04;;;;;;;26.85;19.48;;;;;;;4.53;64.28;102744.94;5091718;28;20028;-88
2022/03/24 03:34:30;;;;;;;26.23;20.60;;;;;;;4.49;63.93;102744.34;5092121;28;20016;-88
2022/03/24 03:36:56;;;;;;;28.25;22.60;;;;;;;4.51;64.09;102749.59;5091953;28;20031;-87
2022/03/24 03:39:23;;;;;;;28.60;21.73;;;;;;;4.47;64.84;102753.53;5091910;28;20042;-87
2022/03/24 03:41:57;;;;;;;27.10;20.63;;;;;;;4.45;66.15;102753.66;5091994;28;20034;-88
2022/03/24 03:44:26;;;;;;;27.77;21.10;;;;;;;4.40;66.72;102755.88;5095492;28;20019;-88
2022/03/24 03:46:57;;;;;;;29.52;20.67;;;;;;;4.35;64.94;102752.72;5095815;28;20031;-88
2022/03/24 03:49:25;;;;;;;27.10;20.30;;;;;;;4.30;64.90;102754.94;5078869;28;20067;-88
2022/03/24 03:51:51;;;;;;;27.60;21.33;;;;;;;4.26;66.45;102757.03;5095710;28;20030;-88
2022/03/24 03:54:24;;;;;;;30.35;22.13;;;;;;;4.22;65.97;102747.50;5095718;28;20035;-88
2022/03/24 03:56:49;;;;;;;29.08;21.40;;;;;;;4.21;66.12;102753.88;5078752;28;20052;-88
2022/03/24 03:59:15;;;;;;;29.23;22.67;;;;;;;4.17;66.78;102749.72;5095524;28;20486;-88
2022/03/24 04:01:43;;;;;;;28.08;21.15;;;;;;;4.15;67.18;102757.03;5095023;28;20020;-88
2022/03/24 04:04:12;;;;;;;26.45;18.75;;;;;;;4.11;66.67;102758.28;5112296;28;20107;-87
2022/03/24 04:06:45;;;;;;;26.52;19.60;;;;;;;4.08;66.34;102756.72;5079266;28;20364;-88
2022/03/24 04:09:11;;;;;;;24.35;18.52;;;;;;;4.02;64.98;102758.06;5095504;28;20024;-88
2022/03/24 04:11:37;;;;;;;24.55;18.35;;;;;;;4.00;66.66;102754.66;5078820;28;20020;-88
2022/03/24 04:14:08;;;;;;;25.55;19.50;;;;;;;3.97;65.62;102754.91;5096624;28;20024;-88
2022/03/24 04:16:36;;;;;;;26.95;20.33;;;;;;;3.91;64.74;102752.69;5095307;28;20055;-87
2022/03/24 04:19:05;;;;;;;30.55;21.90;;;;;;;3.91;64.08;102754.53;5078209;28;20028;-88
2022/03/24 04:21:33;;;;;;;30.30;22.13;;;;;;;3.91;65.17;102760.75;5095422;28;20028;-87
2022/03/24 04:23:59;;;;;;;30.00;22.42;;;;;;;3.88;66.28;102755.63;5095071;28;20035;-87
2022/03/24 04:26:27;;;;;;;29.50;21.63;;;;;;;3.81;68.52;102754.41;5096188;28;20024;-87
2022/03/24 04:28:52;;;;;;;28.08;20.95;;;;;;;3.78;66.76;102755.53;5094930;28;20031;-88
2022/03/24 04:31:22;;;;;;;28.25;20.75;;;;;;;3.74;67.01;102751.38;5094758;28;20012;-88
2022/03/24 04:33:51;;;;;;;29.23;21.60;;;;;;;3.72;66.58;102756.03;5094466;28;20039;-88
2022/03/24 04:36:16;;;;;;;29.17;21.08;;;;;;;3.66;66.39;102748.47;5094754;28;20016;-87
2022/03/24 04:38:42;;;;;;;28.40;20.52;;;;;;;3.61;65.59;102743.47;5096007;28;20032;-88
2022/03/24 04:41:08;;;;;;;30.30;22.98;;;;;;;3.61;65.83;102756.88;5094731;28;20039;-88
2022/03/24 04:43:34;;;;;;;29.90;23.48;;;;;;;3.63;66.81;102752.25;5094743;28;20028;-88
2022/03/24 04:46:05;;;;;;;30.25;23.00;;;;;;;3.66;65.96;102756.50;5094961;28;20473;-88
2022/03/24 04:48:36;;;;;;;30.00;23.13;;;;;;;3.66;66.46;102751.13;5077638;28;20119;-88
2022/03/24 04:51:05;;;;;;;29.85;22.38;;;;;;;3.64;66.79;102753.94;5094959;28;20036;-87
2022/03/24 04:53:33;;;;;;;29.42;21.90;;;;;;;3.63;69.27;102756.75;5077365;28;20524;-87
2022/03/24 04:55:58;;;;;;;31.20;21.63;;;;;;;3.60;68.36;102752.50;5061077;28;20464;-88
2022/03/24 04:58:24;;;;;;;29.88;21.83;;;;;;;3.58;68.69;102754.44;5094130;28;20068;-88
2022/03/24 05:00:49;;;;;;;31.05;23.55;;;;;;;3.54;69.04;102752.13;5094121;28;20098;-87
2022/03/24 05:03:18;;;;;;;29.40;22.33;;;;;;;3.48;68.85;102751.66;5111166;28;20020;-88
2022/03/24 05:05:43;;;;;;;27.40;20.45;;;;;;;3.47;68.46;102757.13;5094408;28;20111;-88
2022/03/24 05:08:09;;;;;;;27.73;21.75;;;;;;;3.44;69.32;102750.19;5094139;28;20107;-87
2022/03/24 05:10:34;;;;;;;29.02;22.13;;;;;;;3.42;69.61;102760.16;5077217;28;20119;-87
2022/03/24 05:13:03;;;;;;;29.17;21.83;;;;;;;3.41;70.29;102763.84;5094139;28;20032;-87
2022/03/24 05:15:28;;;;;;;31.35;21.90;;;;;;;3.42;70.36;102764.69;5077722;28;20467;-88
2022/03/24 05:17:57;;;;;;;28.27;20.85;;;;;;;3.40;70.33;102764.81;5094056;28;20081;-88
2022/03/24 05:20:23;;;;;;;28.45;22.27;;;;;;;3.41;70.37;102760.28;5094089;28;20119;-87
2022/03/24 05:22:50;;;;;;;27.15;21.08;;;;;;;3.40;70.63;102770.19;5110058;28;20081;-88
2022/03/24 05:25:19;;;;;;;27.20;20.00;;;;;;;3.39;71.00;102763.09;5093971;28;20020;-88
2022/03/24 05:27:50;;;;;;;27.95;21.80;;;;;;;3.37;69.40;102772.28;5076945;28;20070;-88
2022/03/24 05:30:20;;;;;;;28.23;21.58;;;;;;;3.33;70.34;102767.13;5093871;28;20035;-87
2022/03/24 05:32:54;;;;;;;28.35;21.30;;;;;;;3.34;68.79;102773.34;5076877;28;20475;-88
2022/03/24 05:35:20;;;;;;;29.75;22.55;;;;;;;3.34;69.63;102776.88;5092436;28;20032;-88
2022/03/24 05:37:45;;;;;;;29.67;22.13;;;;;;;3.35;69.90;102777.72;5094618;28;20024;-87
2022/03/24 05:40:11;;;;;;;30.13;21.85;;;;;;;3.35;69.77;102772.38;5093749;28;20024;-87
2022/03/24 05:42:40;;;;;;;28.27;21.48;;;;;;;3.36;69.08;102779.44;5093708;28;20106;-87
2022/03/24 05:45:06;;;;;;;27.85;21.42;;;;;;;3.38;70.03;102777.50;5093606;28;20452;-88
2022/03/24 05:47:34;;;;;;;29.95;22.33;;;;;;;3.39;69.34;102776.53;5093782;28;20038;-88
2022/03/24 05:50:02;;;;;;;29.35;22.25;;;;;;;3.40;69.61;102782.75;5076850;28;20028;-88
2022/03/24 05:52:34;;;;;;;34.20;23.98;;;;;;;3.41;68.71;102784.44;5077073;28;20395;-88
2022/03/24 05:55:03;;;;;;;29.23;21.90;;;;;;;3.43;67.92;102787.88;5093339;28;20051;-88
2022/03/24 05:57:31;;;;;;;30.38;23.33;;;;;;;3.44;68.67;102789.56;5092878;28;20120;-88
2022/03/24 05:59:58;;;;;;;31.50;23.58;;;;;;;3.45;68.49;102786.75;5093294;28;20452;-88
2022/03/24 06:02:27;;;;;;;31.83;23.58;;;;;;;3.46;69.62;102790.31;5092775;28;20034;-88
2022/03/24 06:04:55;;;;;;;30.17;22.70;;;;;;;3.45;68.85;102786.75;5093063;28;20024;-88
2022/03/24 06:07:24;;;;;;;30.27;22.40;;;;;;;3.45;68.60;102797.50;5092384;28;20471;-88
2022/03/24 06:09:49;;;;;;;30.13;22.83;;;;;;;3.47;69.36;102797.38;5093317;28;20114;-88
2022/03/24 06:12:21;;;;;;;28.60;21.90;;;;;;;3.51;69.48;102788.13;5093631;28;20112;-88
2022/03/24 06:14:46;;;;;;;29.93;22.33;;;;;;;3.55;68.40;102794.97;5092674;28;20043;-87
2022/03/24 06:17:12;;;;;;;29.52;21.88;;;;;;;3.60;68.84;102802.63;5092907;28;20024;-88
2022/03/24 06:19:38;;;;;;;28.73;21.83;;;;;;;3.63;69.97;102802.41;5094236;28;20051;-88
2022/03/24 06:22:04;;;;;;;29.42;21.60;;;;;;;3.62;69.72;102804.22;5094219;28;20046;-88
2022/03/24 06:24:34;;;;;;;27.80;20.63;;;;;;;3.63;68.42;102797.91;5093984;28;20047;-88
2022/03/24 06:27:02;;;;;;;29.75;21.80;;;;;;;3.65;68.23;102800.47;5092685;28;20031;-84
2022/03/24 06:29:28;;;;;;;31.90;24.02;;;;;;;3.73;68.53;102805.22;5075746;28;20574;-87
2022/03/24 06:31:54;;;;;;;33.05;25.05;;;;;;;3.81;68.13;102797.38;5093396;28;20020;-87
2022/03/24 06:34:19;;;;;;;33.00;25.20;;;;;;;3.88;67.65;102801.28;5075658;28;20023;-86
2022/03/24 06:36:47;;;;;;;32.03;24.52;;;;;;;3.96;67.49;102798.84;5092820;28;20024;-87
2022/03/24 06:39:19;;;;;;;32.25;24.88;;;;;;;4.04;67.31;102795.53;5092234;28;20036;-87
2022/03/24 06:41:48;;;;;;;30.13;24.00;;;;;;;4.10;68.26;102800.41;5093624;28;20085;-87
2022/03/24 06:44:14;;;;;;;33.10;25.25;;;;;;;4.19;68.01;102798.81;5105235;28;20069;-88
2022/03/24 06:46:40;;;;;;;30.15;22.98;;;;;;;4.31;68.77;102805.00;5112247;28;20506;-88
2022/03/24 06:49:05;;;;;;;31.75;23.83;;;;;;;4.42;67.94;102799.63;5096020;28;20463;-89
2022/03/24 06:51:34;;;;;;;31.20;23.40;;;;;;;4.49;69.01;102803.50;5112902;28;20026;-88
2022/03/24 06:54:12;;;;;;;;;;;;;;;;;;;;;
2022/03/24 06:56:38;;;;;;;31.17;22.73;;;;;;;4.63;67.71;102806.88;5113822;28;20485;-88
2022/03/24 06:59:04;;;;;;;28.95;22.42;;;;;;;4.72;67.64;102809.66;5096294;28;20122;-88
2022/03/24 07:01:32;;;;;;;28.85;22.13;;;;;;;4.81;68.32;102799.09;5111951;28;20115;-89
2022/03/24 07:03:57;;;;;;;27.73;20.58;;;;;;;4.88;69.21;102798.44;5112245;28;20032;-88
2022/03/24 07:06:23;;;;;;;27.13;21.02;;;;;;;4.99;68.27;102802.06;5113982;28;20031;-88
2022/03/24 07:08:48;;;;;;;30.25;21.77;;;;;;;5.07;68.24;102803.09;5112434;28;20020;-88
2022/03/24 07:11:20;;;;;;;28.60;20.83;;;;;;;5.16;67.84;102800.63;5112221;28;20106;-88
2022/03/24 07:13:45;;;;;;;27.73;19.65;;;;;;;5.23;66.70;102809.88;5095524;28;20040;-89
2022/03/24 07:16:16;;;;;;;26.33;19.45;;;;;;;5.32;66.29;102810.94;5095381;28;20028;-88
2022/03/24 07:18:43;;;;;;;28.05;20.52;;;;;;;5.40;66.06;102801.22;5114723;28;20031;-88
2022/03/24 07:21:10;;;;;;;27.60;20.63;;;;;;;5.51;65.81;102805.66;5117773;28;20032;-88
2022/03/24 07:23:35;;;;;;;26.60;20.33;;;;;;;5.61;65.71;102809.25;5099162;28;20126;-88
2022/03/24 07:26:01;;;;;;;26.83;20.13;;;;;;;5.71;65.58;102813.81;5116345;28;20329;-88
2022/03/24 07:28:26;;;;;;;29.55;19.38;;;;;;;5.78;64.57;102813.13;5116046;28;20028;-88
2022/03/24 07:30:52;;;;;;;25.67;18.75;;;;;;;5.89;64.26;102814.03;5116157;28;20031;-88
2022/03/24 07:33:19;;;;;;;26.65;19.30;;;;;;;6.00;64.42;102818.50;5117227;28;20046;-89
2022/03/24 07:35:46;;;;;;;26.90;19.05;;;;;;;6.10;63.85;102811.31;5099439;28;20035;-88
2022/03/24 07:38:12;;;;;;;25.50;19.50;;;;;;;6.20;63.70;102816.69;5116026;28;20069;-87
2022/03/24 07:40:43;;;;;;;24.65;18.90;;;;;;;6.31;62.82;102813.91;5116046;28;20554;-87
2022/03/24 07:43:09;;;;;;;25.10;19.38;;;;;;;6.42;62.19;102816.47;5115868;28;20019;-87
2022/03/24 07:45:40;;;;;;;29.23;18.73;;;;;;;6.56;60.83;102814.38;5116352;28;20080;-87
2022/03/24 07:48:17;;;;;;;23.90;17.23;;;;;;;6.70;60.48;102810.38;5094947;28;20039;-88
2022/03/24 07:50:47;;;;;;;24.83;17.45;;;;;;;6.81;60.82;102818.34;5093844;28;20088;-88
2022/03/24 07:53:22;;;;;;;21.85;16.08;;;;;;;6.93;59.36;102816.34;5094755;28;20020;-88
2022/03/24 07:55:48;;;;;;;23.67;17.50;;;;;;;7.05;58.94;102817.91;5095421;28;20122;-87
2022/03/24 07:58:16;;;;;;;22.23;16.30;;;;;;;7.16;59.08;102814.19;5096291;28;20386;-87
2022/03/24 08:00:45;;;;;;;24.08;17.55;;;;;;;7.30;58.79;102819.13;5098659;28;20486;-88
2022/03/24 08:03:13;;;;;;;23.90;17.60;;;;;;;7.41;58.36;102822.66;5115917;28;20019;-88
2022/03/24 08:05:38;;;;;;;21.95;15.57;;;;;;;7.50;58.23;102824.47;5117368;28;20058;-88
2022/03/24 08:08:04;;;;;;;20.30;15.05;;;;;;;7.61;57.80;102818.91;5117904;28;20451;-88
2022/03/24 08:10:29;;;;;;;22.60;15.77;;;;;;;7.72;57.44;102829.53;5081966;28;20057;-88
2022/03/24 08:12:55;;;;;;;21.30;14.63;;;;;;;7.85;56.49;102822.94;5115527;28;20127;-88
2022/03/24 08:15:20;;;;;;;21.20;14.70;;;;;;;7.97;55.32;102823.59;5098435;28;20111;-87
2022/03/24 08:17:46;;;;;;;20.52;14.30;;;;;;;8.07;55.14;102819.00;5098040;28;20028;-88
2022/03/24 08:20:12;;;;;;;20.13;13.98;;;;;;;8.22;54.61;102822.03;5115336;28;20636;-88
2022/03/24 08:22:38;;;;;;;20.20;14.23;;;;;;;8.36;53.87;102826.94;5116744;28;20027;-88
2022/03/24 08:25:08;;;;;;;19.90;13.95;;;;;;;8.51;52.53;102821.88;5094738;28;20028;-88
2022/03/24 08:27:34;;;;;;;19.83;13.82;;;;;;;8.71;52.56;102822.59;5097620;28;20039;-88
2022/03/24 08:30:00;;;;;;;18.77;12.50;;;;;;;8.88;51.55;102830.88;5115940;28;20484;-88
2022/03/24 08:32:25;;;;;;;19.02;13.73;;;;;;;9.00;51.75;102826.06;5114792;28;20455;-88
2022/03/24 08:34:57;;;;;;;19.75;13.95;;;;;;;9.12;51.02;102831.09;5115117;28;20459;-87
2022/03/24 08:37:22;;;;;;;20.87;14.87;;;;;;;9.24;50.90;102830.81;5114916;28;20032;-88
2022/03/24 08:39:51;;;;;;;19.67;13.43;;;;;;;9.35;50.83;102827.00;5097751;28;20039;-87
2022/03/24 08:42:20;;;;;;;19.92;13.00;;;;;;;9.45;49.49;102833.19;5114968;28;20077;-88
2022/03/24 08:44:45;;;;;;;18.65;13.00;;;;;;;9.59;49.74;102826.31;5116347;28;20027;-88
2022/03/24 08:47:11;;;;;;;17.88;12.93;;;;;;;9.72;49.53;102817.75;5114848;28;20035;-88
2022/03/24 08:49:36;;;;;;;18.75;12.80;;;;;;;9.85;48.56;102829.00;5097390;28;20059;-88
2022/03/24 08:52:02;;;;;;;20.30;14.20;;;;;;;10.00;48.67;102823.81;5115884;28;20447;-88
2022/03/24 08:54:28;;;;;;;18.33;12.57;;;;;;;10.11;47.45;102823.53;5097898;28;20080;-88
2022/03/24 08:57:00;;;;;;;19.67;13.13;;;;;;;10.24;46.96;102830.34;5097404;28;20388;-88
2022/03/24 08:59:25;;;;;;;17.63;12.48;;;;;;;10.34;46.78;102831.91;5115283;28;20344;-88
2022/03/24 09:01:51;;;;;;;18.75;12.48;;;;;;;10.48;46.17;102832.28;5114351;28;20030;-88
2022/03/24 09:04:18;;;;;;;18.48;12.45;;;;;;;10.63;46.73;102832.47;5096465;28;20478;-88
2022/03/24 09:06:44;;;;;;;18.02;12.50;;;;;;;10.73;43.01;102826.91;5114191;28;20387;-88
2022/03/24 09:09:12;;;;;;;17.10;12.00;;;;;;;10.84;42.90;102838.28;5115007;28;20023;-88
2022/03/24 09:11:38;;;;;;;18.98;12.32;;;;;;;11.00;42.37;102832.00;5097839;28;20388;-89
2022/03/24 09:14:03;;;;;;;20.38;13.30;;;;;;;11.12;41.57;102832.53;5114570;28;20031;-88
2022/03/24 09:16:29;;;;;;;19.63;13.70;;;;;;;11.23;41.78;102836.75;5114156;28;20024;-89
2022/03/24 09:18:58;;;;;;;17.73;12.60;;;;;;;11.35;42.12;102835.41;5113815;28;20555;-89
2022/03/24 09:21:27;;;;;;;17.85;12.63;;;;;;;11.49;42.46;102830.28;5114357;28;20061;-88
2022/03/24 09:23:52;;;;;;;17.70;12.68;;;;;;;11.65;41.46;102832.94;5113968;28;20028;-89
2022/03/24 09:26:19;;;;;;;17.60;12.43;;;;;;;11.77;41.58;102830.72;5114728;27;20038;-88
2022/03/24 09:28:46;;;;;;;18.58;13.02;;;;;;;11.93;39.91;102838.84;5113391;28;20031;-90
2022/03/24 09:31:12;;;;;;;20.98;15.40;;;;;;;12.07;40.12;102831.78;5113630;28;20353;-88
2022/03/24 09:33:38;;;;;;;20.25;14.23;;;;;;;12.20;39.48;102838.56;5113332;28;20034;-88
2022/03/24 09:36:06;;;;;;;18.65;13.38;;;;;;;12.34;39.29;102832.38;5114085;28;20080;-88
2022/03/24 09:38:32;;;;;;;17.05;12.40;;;;;;;12.46;37.80;102830.94;5108126;28;20480;-89
2022/03/24 09:40:58;;;;;;;18.73;12.55;;;;;;;12.62;35.69;102832.69;5096732;28;20038;-89
2022/03/24 09:43:26;;;;;;;18.67;13.40;;;;;;;12.75;36.49;102832.06;5116525;28;20055;-89
2022/03/24 09:45:52;;;;;;;17.25;12.68;;;;;;;12.90;35.87;102829.44;5117157;28;20051;-89
2022/03/24 09:48:20;;;;;;;19.27;13.68;;;;;;;13.04;35.87;102835.94;5113976;28;20379;-88
2022/03/24 09:50:49;;;;;;;16.58;12.13;;;;;;;13.20;34.97;102829.50;5093666;28;20062;-88
2022/03/24 09:53:18;;;;;;;16.08;11.05;;;;;;;13.38;34.69;102825.63;5110298;28;20055;-88
2022/03/24 09:55:45;;;;;;;13.18;10.48;;;;;;;13.56;33.72;102830.72;5093475;28;20066;-87
2022/03/24 09:58:11;;;;;;;14.05;10.55;;;;;;;13.73;32.75;102823.19;5094359;28;20070;-88
2022/03/24 10:00:40;;;;;;;15.07;11.32;;;;;;;13.89;35.83;102820.25;5113155;28;20451;-90
2022/03/24 10:03:15;;;;;;;17.75;13.45;;;;;;;14.03;32.15;102826.75;5114379;28;20027;-88
2022/03/24 10:06:06;;;;;;;17.60;12.90;;;;;;;14.18;31.92;102832.19;5114130;28;20045;-88
2022/03/24 10:08:36;;;;;;;17.33;12.60;;;;;;;14.30;31.32;102830.66;5114001;28;20066;-89
2022/03/24 10:11:11;;;;;;;13.88;10.70;;;;;;;14.49;32.62;102831.91;5114336;28;20047;-88
2022/03/24 10:13:53;;;;;;;13.38;10.35;;;;;;;14.66;30.48;102823.50;5096259;28;20034;-88
2022/03/24 10:16:34;;;;;;;14.00;10.18;;;;;;;14.85;30.81;102822.88;5113398;28;20030;-88
2022/03/24 10:19:03;;;;;;;18.13;13.07;;;;;;;15.00;29.00;102819.19;5112945;28;20016;-87
2022/03/24 10:21:33;;;;;;;14.48;10.60;;;;;;;15.10;29.69;102811.50;5113057;28;20467;-88
2022/03/24 10:24:06;;;;;;;13.60;10.35;;;;;;;15.27;29.84;102815.63;5113432;28;20054;-88
2022/03/24 10:27:00;;;;;;;14.07;10.88;;;;;;;15.52;29.14;102803.41;5113058;28;20020;-88
2022/03/24 10:29:25;;;;;;;13.95;10.70;;;;;;;15.70;27.82;102813.81;5113337;28;20108;-87
2022/03/24 10:32:09;;;;;;;12.23;9.65;;;;;;;15.85;28.22;102808.25;5095949;28;20375;-87
2022/03/24 10:34:37;;;;;;;12.38;9.85;;;;;;;15.99;27.19;102801.78;5113343;28;20038;-87
2022/03/24 10:37:09;;;;;;;10.15;8.75;;;;;;;16.18;28.58;102807.53;5112583;28;20015;-87
2022/03/24 10:39:36;;;;;;;12.95;9.75;;;;;;;16.35;26.35;102808.84;5114375;28;20034;-87
2022/03/24 10:42:16;;;;;;;13.13;9.60;;;;;;;16.55;26.38;102800.69;5112735;28;20091;-88
2022/03/24 10:45:00;;;;;;;10.82;8.38;;;;;;;16.75;28.32;102800.69;5112895;28;20047;-88
2022/03/24 10:47:41;;;;;;;13.95;10.45;;;;;;;16.92;27.00;102800.31;5112711;28;20028;-88
2022/03/24 10:50:22;;;;;;;12.77;10.02;;;;;;;17.07;27.46;102798.22;5112744;28;20062;-88
2022/03/24 10:52:48;;;;;;;9.60;8.13;;;;;;;17.30;24.68;102799.66;5112436;28;20023;-88
2022/03/24 10:55:24;;;;;;;10.10;8.20;;;;;;;17.56;25.36;102795.22;5095804;28;20343;-87
2022/03/24 10:57:50;;;;;;;11.32;8.48;;;;;;;17.83;25.72;102796.81;5112608;28;20050;-87
2022/03/24 11:00:16;;;;;;;11.90;9.52;;;;;;;18.12;24.91;102791.03;5095896;28;20023;-88
2022/03/24 11:02:44;;;;;;;14.25;9.93;;;;;;;18.31;27.32;102790.06;5112052;28;20019;-87
2022/03/24 11:05:12;;;;;;;11.55;9.23;;;;;;;18.49;24.17;102800.31;5112336;28;20030;-88
2022/03/24 11:07:38;;;;;;;11.80;9.43;;;;;;;18.73;24.21;102800.56;5112745;28;20447;-88
2022/03/24 11:10:13;;;;;;;11.23;8.60;;;;;;;19.02;25.76;102796.34;5111976;28;20112;-88
2022/03/24 11:12:40;;;;;;;12.18;9.00;;;;;;;19.34;23.13;102799.03;5095320;28;20031;-88
2022/03/24 11:15:07;;;;;;;10.93;8.90;;;;;;;19.63;23.26;102791.06;5112897;28;20020;-88
2022/03/24 11:17:37;;;;;;;12.48;8.63;;;;;;;19.96;25.54;102790.72;5112538;28;20375;-88
2022/03/24 11:20:06;;;;;;;10.50;8.30;;;;;;;20.86;22.79;102782.66;5112446;28;20027;-88